sensor_id;sensor_type;location;lat;lon;timestamp;P1;durP1;ratioP1;P2;durP2;ratioP2
46339;SDS011;47273;49.274;8.708;2023-02-01T00:01:08;10.38;;;4.55;;
46339;SDS011;47273;49.274;8.708;2023-02-01T00:03:34;6.97;;;3.63;;
46339;SDS011;47273;49.274;8.708;2023-02-01T00:06:00;11.32;;;4.22;;
46339;SDS011;47273;49.274;8.708;2023-02-01T00:08:27;8.80;;;4.07;;
46339;SDS011;47273;49.274;8.708;2023-02-01T00:11:07;7.20;;;3.75;;
46339;SDS011;47273;49.274;8.708;2023-02-01T00:13:35;6.70;;;3.78;;
46339;SDS011;47273;49.274;8.708;2023-02-01T00:16:46;7.72;;;4.32;;
46339;SDS011;47273;49.274;8.708;2023-02-01T00:19:01;6.38;;;4.20;;
46339;SDS011;47273;49.274;8.708;2023-02-01T00:21:30;11.93;;;4.55;;
46339;SDS011;47273;49.274;8.708;2023-02-01T00:23:56;10.32;;;4.18;;
46339;SDS011;47273;49.274;8.708;2023-02-01T00:26:24;8.60;;;4.20;;
46339;SDS011;47273;49.274;8.708;2023-02-01T00:28:51;11.02;;;4.68;;
46339;SDS011;47273;49.274;8.708;2023-02-01T00:31:16;6.93;;;3.55;;
46339;SDS011;47273;49.274;8.708;2023-02-01T00:33:42;6.57;;;3.60;;
46339;SDS011;47273;49.274;8.708;2023-02-01T00:36:11;7.70;;;3.80;;
46339;SDS011;47273;49.274;8.708;2023-02-01T00:38:37;9.57;;;4.63;;
46339;SDS011;47273;49.274;8.708;2023-02-01T00:43:58;8.32;;;3.28;;
46339;SDS011;47273;49.274;8.708;2023-02-01T00:46:24;6.95;;;3.70;;
46339;SDS011;47273;49.274;8.708;2023-02-01T00:48:50;7.35;;;3.58;;
46339;SDS011;47273;49.274;8.708;2023-02-01T00:51:26;6.40;;;3.55;;
46339;SDS011;47273;49.274;8.708;2023-02-01T00:53:53;8.80;;;3.97;;
46339;SDS011;47273;49.274;8.708;2023-02-01T00:56:19;9.20;;;4.18;;
46339;SDS011;47273;49.274;8.708;2023-02-01T00:58:45;10.52;;;4.03;;
46339;SDS011;47273;49.274;8.708;2023-02-01T01:01:18;7.18;;;3.35;;
46339;SDS011;47273;49.274;8.708;2023-02-01T01:03:47;7.10;;;3.67;;
46339;SDS011;47273;49.274;8.708;2023-02-01T01:06:16;7.00;;;3.78;;
46339;SDS011;47273;49.274;8.708;2023-02-01T01:08:45;6.55;;;3.83;;
46339;SDS011;47273;49.274;8.708;2023-02-01T01:11:13;8.38;;;4.03;;
46339;SDS011;47273;49.274;8.708;2023-02-01T01:13:41;6.18;;;4.05;;
46339;SDS011;47273;49.274;8.708;2023-02-01T01:16:07;5.85;;;3.45;;
46339;SDS011;47273;49.274;8.708;2023-02-01T01:18:34;6.80;;;3.60;;
46339;SDS011;47273;49.274;8.708;2023-02-01T01:21:00;10.88;;;4.32;;
46339;SDS011;47273;49.274;8.708;2023-02-01T01:23:27;9.32;;;4.25;;
46339;SDS011;47273;49.274;8.708;2023-02-01T01:25:53;11.40;;;4.50;;
46339;SDS011;47273;49.274;8.708;2023-02-01T01:28:18;8.38;;;4.25;;
46339;SDS011;47273;49.274;8.708;2023-02-01T01:30:44;6.03;;;3.83;;
46339;SDS011;47273;49.274;8.708;2023-02-01T01:33:10;8.82;;;4.45;;
46339;SDS011;47273;49.274;8.708;2023-02-01T01:35:35;6.38;;;3.42;;
46339;SDS011;47273;49.274;8.708;2023-02-01T01:38:01;9.00;;;4.05;;
46339;SDS011;47273;49.274;8.708;2023-02-01T01:40:28;10.70;;;4.78;;
46339;SDS011;47273;49.274;8.708;2023-02-01T01:42:54;8.70;;;3.95;;
46339;SDS011;47273;49.274;8.708;2023-02-01T01:45:23;10.02;;;4.65;;
46339;SDS011;47273;49.274;8.708;2023-02-01T01:47:52;9.13;;;3.75;;
46339;SDS011;47273;49.274;8.708;2023-02-01T01:50:42;7.25;;;3.58;;
46339;SDS011;47273;49.274;8.708;2023-02-01T01:53:14;9.00;;;4.15;;
46339;SDS011;47273;49.274;8.708;2023-02-01T01:55:44;10.60;;;4.70;;
46339;SDS011;47273;49.274;8.708;2023-02-01T01:58:15;9.15;;;4.60;;
46339;SDS011;47273;49.274;8.708;2023-02-01T02:00:44;9.45;;;3.97;;
46339;SDS011;47273;49.274;8.708;2023-02-01T02:03:13;8.35;;;4.72;;
46339;SDS011;47273;49.274;8.708;2023-02-01T02:05:39;9.50;;;4.60;;
46339;SDS011;47273;49.274;8.708;2023-02-01T02:08:05;8.98;;;4.03;;
46339;SDS011;47273;49.274;8.708;2023-02-01T02:10:31;9.73;;;4.28;;
46339;SDS011;47273;49.274;8.708;2023-02-01T02:13:16;8.40;;;4.85;;
46339;SDS011;47273;49.274;8.708;2023-02-01T02:15:59;7.53;;;4.25;;
46339;SDS011;47273;49.274;8.708;2023-02-01T02:21:17;7.40;;;3.88;;
46339;SDS011;47273;49.274;8.708;2023-02-01T02:26:47;7.15;;;3.95;;
46339;SDS011;47273;49.274;8.708;2023-02-01T02:34:53;6.72;;;3.88;;
46339;SDS011;47273;49.274;8.708;2023-02-01T02:45:49;10.30;;;3.60;;
46339;SDS011;47273;49.274;8.708;2023-02-01T02:54:28;8.20;;;3.58;;
46339;SDS011;47273;49.274;8.708;2023-02-01T02:57:18;9.93;;;3.92;;
46339;SDS011;47273;49.274;8.708;2023-02-01T03:00:08;6.07;;;3.63;;
46339;SDS011;47273;49.274;8.708;2023-02-01T03:02:55;11.52;;;4.50;;
46339;SDS011;47273;49.274;8.708;2023-02-01T03:05:44;8.50;;;3.97;;
46339;SDS011;47273;49.274;8.708;2023-02-01T03:08:30;10.05;;;4.32;;
46339;SDS011;47273;49.274;8.708;2023-02-01T03:13:41;6.65;;;3.40;;
46339;SDS011;47273;49.274;8.708;2023-02-01T03:16:20;8.48;;;3.65;;
46339;SDS011;47273;49.274;8.708;2023-02-01T03:23:56;7.32;;;4.13;;
46339;SDS011;47273;49.274;8.708;2023-02-01T03:26:27;10.23;;;4.38;;
46339;SDS011;47273;49.274;8.708;2023-02-01T03:28:57;8.43;;;3.85;;
46339;SDS011;47273;49.274;8.708;2023-02-01T03:31:30;7.15;;;3.72;;
46339;SDS011;47273;49.274;8.708;2023-02-01T03:33:56;8.55;;;4.28;;
46339;SDS011;47273;49.274;8.708;2023-02-01T03:36:35;8.35;;;3.47;;
46339;SDS011;47273;49.274;8.708;2023-02-01T03:39:14;9.85;;;4.25;;
46339;SDS011;47273;49.274;8.708;2023-02-01T03:41:48;8.52;;;3.58;;
46339;SDS011;47273;49.274;8.708;2023-02-01T03:44:24;10.68;;;3.83;;
46339;SDS011;47273;49.274;8.708;2023-02-01T03:46:57;6.95;;;3.70;;
46339;SDS011;47273;49.274;8.708;2023-02-01T03:49:33;6.03;;;3.47;;
46339;SDS011;47273;49.274;8.708;2023-02-01T03:52:12;6.55;;;3.90;;
46339;SDS011;47273;49.274;8.708;2023-02-01T03:54:41;8.10;;;3.63;;
46339;SDS011;47273;49.274;8.708;2023-02-01T03:57:09;10.32;;;4.75;;
46339;SDS011;47273;49.274;8.708;2023-02-01T03:59:39;6.18;;;3.22;;
46339;SDS011;47273;49.274;8.708;2023-02-01T04:02:06;6.68;;;3.38;;
46339;SDS011;47273;49.274;8.708;2023-02-01T04:04:32;10.68;;;4.07;;
46339;SDS011;47273;49.274;8.708;2023-02-01T04:06:59;7.35;;;3.70;;
46339;SDS011;47273;49.274;8.708;2023-02-01T04:09:25;7.53;;;3.95;;
46339;SDS011;47273;49.274;8.708;2023-02-01T04:11:50;6.22;;;3.75;;
46339;SDS011;47273;49.274;8.708;2023-02-01T04:14:16;7.30;;;3.90;;
46339;SDS011;47273;49.274;8.708;2023-02-01T04:16:42;6.68;;;3.92;;
46339;SDS011;47273;49.274;8.708;2023-02-01T04:19:07;6.95;;;3.88;;
46339;SDS011;47273;49.274;8.708;2023-02-01T04:21:33;7.15;;;4.07;;
46339;SDS011;47273;49.274;8.708;2023-02-01T04:23:59;6.50;;;3.88;;
46339;SDS011;47273;49.274;8.708;2023-02-01T04:26:24;12.32;;;4.05;;
46339;SDS011;47273;49.274;8.708;2023-02-01T04:28:50;7.25;;;4.03;;
46339;SDS011;47273;49.274;8.708;2023-02-01T04:31:17;6.00;;;3.47;;
46339;SDS011;47273;49.274;8.708;2023-02-01T04:33:50;7.75;;;4.32;;
46339;SDS011;47273;49.274;8.708;2023-02-01T04:36:20;6.65;;;4.22;;
46339;SDS011;47273;49.274;8.708;2023-02-01T04:38:47;7.53;;;3.90;;
46339;SDS011;47273;49.274;8.708;2023-02-01T04:41:19;7.85;;;4.30;;
46339;SDS011;47273;49.274;8.708;2023-02-01T04:43:47;6.43;;;3.95;;
46339;SDS011;47273;49.274;8.708;2023-02-01T04:46:14;9.55;;;4.10;;
46339;SDS011;47273;49.274;8.708;2023-02-01T04:48:40;7.72;;;3.88;;
46339;SDS011;47273;49.274;8.708;2023-02-01T04:51:05;6.32;;;3.28;;
46339;SDS011;47273;49.274;8.708;2023-02-01T04:53:31;8.75;;;4.30;;
46339;SDS011;47273;49.274;8.708;2023-02-01T04:55:57;7.68;;;4.20;;
46339;SDS011;47273;49.274;8.708;2023-02-01T04:58:23;9.02;;;3.90;;
46339;SDS011;47273;49.274;8.708;2023-02-01T05:03:29;7.38;;;4.00;;
46339;SDS011;47273;49.274;8.708;2023-02-01T05:05:56;6.43;;;3.67;;
46339;SDS011;47273;49.274;8.708;2023-02-01T05:08:22;6.50;;;3.85;;
46339;SDS011;47273;49.274;8.708;2023-02-01T05:10:48;5.80;;;3.38;;
46339;SDS011;47273;49.274;8.708;2023-02-01T05:13:13;6.97;;;3.70;;
46339;SDS011;47273;49.274;8.708;2023-02-01T05:15:58;5.35;;;3.67;;
46339;SDS011;47273;49.274;8.708;2023-02-01T05:18:23;7.65;;;3.85;;
46339;SDS011;47273;49.274;8.708;2023-02-01T05:20:49;6.13;;;3.58;;
46339;SDS011;47273;49.274;8.708;2023-02-01T05:23:14;6.47;;;4.18;;
46339;SDS011;47273;49.274;8.708;2023-02-01T05:25:40;12.23;;;4.43;;
46339;SDS011;47273;49.274;8.708;2023-02-01T05:28:06;8.35;;;4.38;;
46339;SDS011;47273;49.274;8.708;2023-02-01T05:30:32;6.75;;;4.22;;
46339;SDS011;47273;49.274;8.708;2023-02-01T05:33:00;6.78;;;3.70;;
46339;SDS011;47273;49.274;8.708;2023-02-01T05:35:26;7.10;;;4.07;;
46339;SDS011;47273;49.274;8.708;2023-02-01T05:37:52;11.25;;;4.07;;
46339;SDS011;47273;49.274;8.708;2023-02-01T05:40:17;9.15;;;4.00;;
46339;SDS011;47273;49.274;8.708;2023-02-01T05:42:43;9.30;;;4.50;;
46339;SDS011;47273;49.274;8.708;2023-02-01T05:45:09;11.73;;;4.22;;
46339;SDS011;47273;49.274;8.708;2023-02-01T05:47:35;7.20;;;4.10;;
46339;SDS011;47273;49.274;8.708;2023-02-01T05:50:01;7.93;;;4.57;;
46339;SDS011;47273;49.274;8.708;2023-02-01T05:52:28;8.25;;;4.40;;
46339;SDS011;47273;49.274;8.708;2023-02-01T05:54:53;8.93;;;4.65;;
46339;SDS011;47273;49.274;8.708;2023-02-01T05:57:19;7.50;;;4.70;;
46339;SDS011;47273;49.274;8.708;2023-02-01T05:59:44;9.13;;;4.63;;
46339;SDS011;47273;49.274;8.708;2023-02-01T06:02:11;9.30;;;3.92;;
46339;SDS011;47273;49.274;8.708;2023-02-01T06:04:37;6.60;;;4.15;;
46339;SDS011;47273;49.274;8.708;2023-02-01T06:07:03;7.22;;;4.05;;
46339;SDS011;47273;49.274;8.708;2023-02-01T06:09:30;8.48;;;4.68;;
46339;SDS011;47273;49.274;8.708;2023-02-01T06:11:56;9.95;;;4.55;;
46339;SDS011;47273;49.274;8.708;2023-02-01T06:14:26;14.65;;;5.32;;
46339;SDS011;47273;49.274;8.708;2023-02-01T06:16:52;8.77;;;5.22;;
46339;SDS011;47273;49.274;8.708;2023-02-01T06:19:19;11.35;;;4.78;;
46339;SDS011;47273;49.274;8.708;2023-02-01T06:21:45;12.93;;;5.68;;
46339;SDS011;47273;49.274;8.708;2023-02-01T06:24:11;13.38;;;6.50;;
46339;SDS011;47273;49.274;8.708;2023-02-01T06:26:38;8.30;;;5.55;;
46339;SDS011;47273;49.274;8.708;2023-02-01T06:29:05;8.38;;;5.40;;
46339;SDS011;47273;49.274;8.708;2023-02-01T06:31:37;9.98;;;5.55;;
46339;SDS011;47273;49.274;8.708;2023-02-01T06:34:03;7.28;;;4.70;;
46339;SDS011;47273;49.274;8.708;2023-02-01T06:36:29;9.93;;;4.90;;
46339;SDS011;47273;49.274;8.708;2023-02-01T06:38:55;7.45;;;4.82;;
46339;SDS011;47273;49.274;8.708;2023-02-01T06:41:24;11.75;;;6.55;;
46339;SDS011;47273;49.274;8.708;2023-02-01T06:43:51;10.00;;;5.47;;
46339;SDS011;47273;49.274;8.708;2023-02-01T06:46:25;8.33;;;5.10;;
46339;SDS011;47273;49.274;8.708;2023-02-01T06:48:51;11.98;;;5.55;;
46339;SDS011;47273;49.274;8.708;2023-02-01T06:51:24;9.68;;;5.32;;
46339;SDS011;47273;49.274;8.708;2023-02-01T06:53:51;12.40;;;5.38;;
46339;SDS011;47273;49.274;8.708;2023-02-01T06:56:17;17.10;;;5.60;;
46339;SDS011;47273;49.274;8.708;2023-02-01T06:58:43;9.98;;;5.15;;
46339;SDS011;47273;49.274;8.708;2023-02-01T07:01:09;17.10;;;5.45;;
46339;SDS011;47273;49.274;8.708;2023-02-01T07:03:35;12.48;;;5.53;;
46339;SDS011;47273;49.274;8.708;2023-02-01T07:06:02;16.02;;;5.68;;
46339;SDS011;47273;49.274;8.708;2023-02-01T07:08:28;16.20;;;6.93;;
46339;SDS011;47273;49.274;8.708;2023-02-01T07:10:55;12.43;;;6.28;;
46339;SDS011;47273;49.274;8.708;2023-02-01T07:13:21;10.63;;;6.18;;
46339;SDS011;47273;49.274;8.708;2023-02-01T07:15:46;12.02;;;5.70;;
46339;SDS011;47273;49.274;8.708;2023-02-01T07:18:13;13.95;;;6.43;;
46339;SDS011;47273;49.274;8.708;2023-02-01T07:20:39;11.02;;;5.47;;
46339;SDS011;47273;49.274;8.708;2023-02-01T07:23:05;13.75;;;4.80;;
46339;SDS011;47273;49.274;8.708;2023-02-01T07:25:34;13.07;;;4.30;;
46339;SDS011;47273;49.274;8.708;2023-02-01T07:28:00;8.95;;;4.72;;
46339;SDS011;47273;49.274;8.708;2023-02-01T07:30:25;10.68;;;3.90;;
46339;SDS011;47273;49.274;8.708;2023-02-01T07:32:54;13.02;;;5.00;;
46339;SDS011;47273;49.274;8.708;2023-02-01T07:35:38;13.32;;;4.75;;
46339;SDS011;47273;49.274;8.708;2023-02-01T07:38:03;11.90;;;4.82;;
46339;SDS011;47273;49.274;8.708;2023-02-01T07:40:29;13.93;;;4.90;;
46339;SDS011;47273;49.274;8.708;2023-02-01T07:42:55;16.45;;;5.25;;
46339;SDS011;47273;49.274;8.708;2023-02-01T07:45:21;9.77;;;4.45;;
46339;SDS011;47273;49.274;8.708;2023-02-01T07:47:48;15.13;;;6.03;;
46339;SDS011;47273;49.274;8.708;2023-02-01T07:50:16;9.40;;;5.45;;
46339;SDS011;47273;49.274;8.708;2023-02-01T07:52:41;14.43;;;5.38;;
46339;SDS011;47273;49.274;8.708;2023-02-01T07:55:07;13.77;;;5.50;;
46339;SDS011;47273;49.274;8.708;2023-02-01T07:57:33;17.83;;;6.07;;
46339;SDS011;47273;49.274;8.708;2023-02-01T07:59:59;12.27;;;5.55;;
46339;SDS011;47273;49.274;8.708;2023-02-01T08:02:43;8.85;;;4.93;;
46339;SDS011;47273;49.274;8.708;2023-02-01T08:05:09;10.68;;;5.63;;
46339;SDS011;47273;49.274;8.708;2023-02-01T08:07:34;10.80;;;4.97;;
46339;SDS011;47273;49.274;8.708;2023-02-01T08:10:00;10.38;;;5.55;;
46339;SDS011;47273;49.274;8.708;2023-02-01T08:12:26;14.73;;;5.20;;
46339;SDS011;47273;49.274;8.708;2023-02-01T08:14:52;12.65;;;5.65;;
46339;SDS011;47273;49.274;8.708;2023-02-01T08:17:19;10.30;;;5.40;;
46339;SDS011;47273;49.274;8.708;2023-02-01T08:19:45;12.75;;;5.72;;
46339;SDS011;47273;49.274;8.708;2023-02-01T08:22:10;21.15;;;7.50;;
46339;SDS011;47273;49.274;8.708;2023-02-01T08:24:36;8.40;;;5.18;;
46339;SDS011;47273;49.274;8.708;2023-02-01T08:27:05;15.63;;;5.95;;
46339;SDS011;47273;49.274;8.708;2023-02-01T08:29:33;15.27;;;6.13;;
46339;SDS011;47273;49.274;8.708;2023-02-01T08:31:59;11.30;;;5.20;;
46339;SDS011;47273;49.274;8.708;2023-02-01T08:34:25;11.55;;;5.40;;
46339;SDS011;47273;49.274;8.708;2023-02-01T08:36:52;13.40;;;5.95;;
46339;SDS011;47273;49.274;8.708;2023-02-01T08:39:22;19.05;;;5.75;;
46339;SDS011;47273;49.274;8.708;2023-02-01T08:41:48;16.75;;;7.72;;
46339;SDS011;47273;49.274;8.708;2023-02-01T08:44:33;17.00;;;6.25;;
46339;SDS011;47273;49.274;8.708;2023-02-01T08:46:59;21.98;;;5.55;;
46339;SDS011;47273;49.274;8.708;2023-02-01T08:49:25;14.77;;;6.30;;
46339;SDS011;47273;49.274;8.708;2023-02-01T08:51:50;12.13;;;5.50;;
46339;SDS011;47273;49.274;8.708;2023-02-01T08:54:16;13.13;;;5.15;;
46339;SDS011;47273;49.274;8.708;2023-02-01T08:56:41;8.95;;;4.78;;
46339;SDS011;47273;49.274;8.708;2023-02-01T08:59:07;11.32;;;5.07;;
46339;SDS011;47273;49.274;8.708;2023-02-01T09:01:33;18.20;;;5.70;;
46339;SDS011;47273;49.274;8.708;2023-02-01T09:03:59;13.35;;;5.13;;
46339;SDS011;47273;49.274;8.708;2023-02-01T09:06:24;16.00;;;5.13;;
46339;SDS011;47273;49.274;8.708;2023-02-01T09:08:50;17.67;;;5.40;;
46339;SDS011;47273;49.274;8.708;2023-02-01T09:11:16;11.55;;;5.40;;
46339;SDS011;47273;49.274;8.708;2023-02-01T09:13:44;12.25;;;5.28;;
46339;SDS011;47273;49.274;8.708;2023-02-01T09:16:10;12.25;;;5.03;;
46339;SDS011;47273;49.274;8.708;2023-02-01T09:18:36;10.52;;;4.93;;
46339;SDS011;47273;49.274;8.708;2023-02-01T09:21:05;13.30;;;5.80;;
46339;SDS011;47273;49.274;8.708;2023-02-01T09:23:32;16.30;;;5.57;;
46339;SDS011;47273;49.274;8.708;2023-02-01T09:25:59;12.63;;;4.63;;
46339;SDS011;47273;49.274;8.708;2023-02-01T09:28:29;16.05;;;4.40;;
46339;SDS011;47273;49.274;8.708;2023-02-01T09:30:55;17.73;;;5.55;;
46339;SDS011;47273;49.274;8.708;2023-02-01T09:33:26;14.02;;;4.68;;
46339;SDS011;47273;49.274;8.708;2023-02-01T09:35:59;10.65;;;5.63;;
46339;SDS011;47273;49.274;8.708;2023-02-01T09:38:27;15.05;;;5.35;;
46339;SDS011;47273;49.274;8.708;2023-02-01T09:40:53;11.90;;;4.88;;
46339;SDS011;47273;49.274;8.708;2023-02-01T09:43:33;14.77;;;5.20;;
46339;SDS011;47273;49.274;8.708;2023-02-01T09:46:28;10.98;;;4.88;;
46339;SDS011;47273;49.274;8.708;2023-02-01T09:48:56;16.48;;;5.00;;
46339;SDS011;47273;49.274;8.708;2023-02-01T09:51:36;14.23;;;4.50;;
46339;SDS011;47273;49.274;8.708;2023-02-01T09:54:06;7.65;;;4.20;;
46339;SDS011;47273;49.274;8.708;2023-02-01T10:02:17;12.50;;;4.55;;
46339;SDS011;47273;49.274;8.708;2023-02-01T10:04:46;14.63;;;5.90;;
46339;SDS011;47273;49.274;8.708;2023-02-01T10:07:22;13.63;;;5.38;;
46339;SDS011;47273;49.274;8.708;2023-02-01T10:10:11;19.23;;;4.13;;
46339;SDS011;47273;49.274;8.708;2023-02-01T10:27:22;10.43;;;3.45;;
46339;SDS011;47273;49.274;8.708;2023-02-01T10:29:57;6.87;;;3.60;;
46339;SDS011;47273;49.274;8.708;2023-02-01T10:32:29;10.35;;;3.25;;
46339;SDS011;47273;49.274;8.708;2023-02-01T10:34:58;14.80;;;4.10;;
46339;SDS011;47273;49.274;8.708;2023-02-01T10:37:32;7.30;;;3.13;;
46339;SDS011;47273;49.274;8.708;2023-02-01T10:39:59;8.52;;;3.95;;
46339;SDS011;47273;49.274;8.708;2023-02-01T10:42:35;21.75;;;4.07;;
46339;SDS011;47273;49.274;8.708;2023-02-01T10:45:04;13.50;;;4.65;;
46339;SDS011;47273;49.274;8.708;2023-02-01T10:47:38;11.88;;;4.03;;
46339;SDS011;47273;49.274;8.708;2023-02-01T10:52:45;9.18;;;3.38;;
46339;SDS011;47273;49.274;8.708;2023-02-01T10:55:33;16.23;;;4.70;;
46339;SDS011;47273;49.274;8.708;2023-02-01T11:04:16;10.88;;;2.90;;
46339;SDS011;47273;49.274;8.708;2023-02-01T11:06:48;24.65;;;4.15;;
46339;SDS011;47273;49.274;8.708;2023-02-01T11:09:21;9.38;;;3.10;;
46339;SDS011;47273;49.274;8.708;2023-02-01T11:14:32;15.00;;;4.22;;
46339;SDS011;47273;49.274;8.708;2023-02-01T11:17:15;13.85;;;3.80;;
46339;SDS011;47273;49.274;8.708;2023-02-01T11:19:57;8.60;;;4.07;;
46339;SDS011;47273;49.274;8.708;2023-02-01T11:22:29;11.10;;;3.67;;
46339;SDS011;47273;49.274;8.708;2023-02-01T11:24:55;15.00;;;3.80;;
46339;SDS011;47273;49.274;8.708;2023-02-01T11:27:22;11.35;;;4.38;;
46339;SDS011;47273;49.274;8.708;2023-02-01T11:29:50;16.75;;;4.55;;
46339;SDS011;47273;49.274;8.708;2023-02-01T11:32:18;7.22;;;3.63;;
46339;SDS011;47273;49.274;8.708;2023-02-01T11:34:57;11.55;;;3.50;;
46339;SDS011;47273;49.274;8.708;2023-02-01T11:37:31;13.43;;;5.10;;
46339;SDS011;47273;49.274;8.708;2023-02-01T11:40:03;12.63;;;4.80;;
46339;SDS011;47273;49.274;8.708;2023-02-01T11:45:26;15.02;;;4.68;;
46339;SDS011;47273;49.274;8.708;2023-02-01T11:47:57;21.77;;;4.10;;
46339;SDS011;47273;49.274;8.708;2023-02-01T11:50:26;13.07;;;3.97;;
46339;SDS011;47273;49.274;8.708;2023-02-01T11:53:20;10.38;;;3.88;;
46339;SDS011;47273;49.274;8.708;2023-02-01T11:59:11;19.33;;;3.85;;
46339;SDS011;47273;49.274;8.708;2023-02-01T12:01:58;13.70;;;3.75;;
46339;SDS011;47273;49.274;8.708;2023-02-01T12:10:39;9.27;;;4.07;;
46339;SDS011;47273;49.274;8.708;2023-02-01T12:21:56;12.25;;;3.88;;
46339;SDS011;47273;49.274;8.708;2023-02-01T12:38:29;12.68;;;3.30;;
46339;SDS011;47273;49.274;8.708;2023-02-01T12:44:28;15.27;;;3.88;;
46339;SDS011;47273;49.274;8.708;2023-02-01T12:47:09;12.60;;;3.50;;
46339;SDS011;47273;49.274;8.708;2023-02-01T12:49:41;15.10;;;4.07;;
46339;SDS011;47273;49.274;8.708;2023-02-01T12:52:18;14.15;;;4.25;;
46339;SDS011;47273;49.274;8.708;2023-02-01T12:57:23;12.98;;;3.38;;
46339;SDS011;47273;49.274;8.708;2023-02-01T13:02:56;14.98;;;4.93;;
46339;SDS011;47273;49.274;8.708;2023-02-01T13:05:29;12.57;;;4.32;;
46339;SDS011;47273;49.274;8.708;2023-02-01T13:08:05;10.73;;;3.77;;
46339;SDS011;47273;49.274;8.708;2023-02-01T13:10:37;10.80;;;2.75;;
46339;SDS011;47273;49.274;8.708;2023-02-01T13:15:53;9.27;;;2.90;;
46339;SDS011;47273;49.274;8.708;2023-02-01T13:18:27;11.57;;;3.40;;
46339;SDS011;47273;49.274;8.708;2023-02-01T13:23:46;9.23;;;3.97;;
46339;SDS011;47273;49.274;8.708;2023-02-01T13:26:13;9.82;;;3.83;;
46339;SDS011;47273;49.274;8.708;2023-02-01T13:28:44;10.10;;;3.72;;
46339;SDS011;47273;49.274;8.708;2023-02-01T13:45:17;14.75;;;3.38;;
46339;SDS011;47273;49.274;8.708;2023-02-01T13:47:59;12.57;;;3.08;;
46339;SDS011;47273;49.274;8.708;2023-02-01T13:50:35;10.63;;;3.40;;
46339;SDS011;47273;49.274;8.708;2023-02-01T13:55:36;9.20;;;3.70;;
46339;SDS011;47273;49.274;8.708;2023-02-01T14:00:46;8.57;;;3.30;;
46339;SDS011;47273;49.274;8.708;2023-02-01T14:03:22;8.65;;;3.83;;
46339;SDS011;47273;49.274;8.708;2023-02-01T14:06:17;15.23;;;3.60;;
46339;SDS011;47273;49.274;8.708;2023-02-01T14:09:10;15.23;;;4.10;;
46339;SDS011;47273;49.274;8.708;2023-02-01T14:15:19;13.02;;;4.00;;
46339;SDS011;47273;49.274;8.708;2023-02-01T14:17:54;11.93;;;3.20;;
46339;SDS011;47273;49.274;8.708;2023-02-01T14:23:09;11.88;;;3.40;;
46339;SDS011;47273;49.274;8.708;2023-02-01T14:25:39;15.55;;;3.20;;
46339;SDS011;47273;49.274;8.708;2023-02-01T14:28:12;11.80;;;4.93;;
46339;SDS011;47273;49.274;8.708;2023-02-01T14:30:49;9.13;;;2.75;;
46339;SDS011;47273;49.274;8.708;2023-02-01T14:33:18;7.22;;;3.00;;
46339;SDS011;47273;49.274;8.708;2023-02-01T14:36:07;8.02;;;2.97;;
46339;SDS011;47273;49.274;8.708;2023-02-01T14:38:35;14.90;;;3.08;;
46339;SDS011;47273;49.274;8.708;2023-02-01T14:49:42;10.02;;;3.00;;
46339;SDS011;47273;49.274;8.708;2023-02-01T14:52:22;17.27;;;3.33;;
46339;SDS011;47273;49.274;8.708;2023-02-01T14:54:55;9.50;;;2.97;;
46339;SDS011;47273;49.274;8.708;2023-02-01T14:57:25;13.35;;;3.20;;
46339;SDS011;47273;49.274;8.708;2023-02-01T14:59:57;9.75;;;3.47;;
46339;SDS011;47273;49.274;8.708;2023-02-01T15:02:31;10.65;;;3.55;;
46339;SDS011;47273;49.274;8.708;2023-02-01T15:05:01;6.60;;;2.28;;
46339;SDS011;47273;49.274;8.708;2023-02-01T15:07:27;5.85;;;2.58;;
46339;SDS011;47273;49.274;8.708;2023-02-01T15:09:57;7.65;;;2.60;;
46339;SDS011;47273;49.274;8.708;2023-02-01T15:12:34;11.75;;;4.05;;
46339;SDS011;47273;49.274;8.708;2023-02-01T15:15:22;11.40;;;2.72;;
46339;SDS011;47273;49.274;8.708;2023-02-01T15:17:53;11.35;;;2.90;;
46339;SDS011;47273;49.274;8.708;2023-02-01T15:20:22;6.38;;;2.63;;
46339;SDS011;47273;49.274;8.708;2023-02-01T15:22:55;13.90;;;3.88;;
46339;SDS011;47273;49.274;8.708;2023-02-01T15:25:27;13.52;;;3.08;;
46339;SDS011;47273;49.274;8.708;2023-02-01T15:27:55;13.57;;;3.70;;
46339;SDS011;47273;49.274;8.708;2023-02-01T15:30:23;11.05;;;3.25;;
46339;SDS011;47273;49.274;8.708;2023-02-01T15:33:03;17.13;;;3.72;;
46339;SDS011;47273;49.274;8.708;2023-02-01T15:41:02;13.30;;;3.38;;
46339;SDS011;47273;49.274;8.708;2023-02-01T15:43:31;14.13;;;3.40;;
46339;SDS011;47273;49.274;8.708;2023-02-01T15:46:21;17.13;;;4.18;;
46339;SDS011;47273;49.274;8.708;2023-02-01T15:49:02;18.33;;;3.38;;
46339;SDS011;47273;49.274;8.708;2023-02-01T15:51:30;16.45;;;5.03;;
46339;SDS011;47273;49.274;8.708;2023-02-01T15:54:04;8.63;;;4.13;;
46339;SDS011;47273;49.274;8.708;2023-02-01T15:57:04;5.75;;;3.30;;
46339;SDS011;47273;49.274;8.708;2023-02-01T15:59:32;10.95;;;3.58;;
46339;SDS011;47273;49.274;8.708;2023-02-01T16:02:29;8.27;;;3.92;;
46339;SDS011;47273;49.274;8.708;2023-02-01T16:08:06;8.80;;;3.63;;
46339;SDS011;47273;49.274;8.708;2023-02-01T16:10:38;9.35;;;3.95;;
46339;SDS011;47273;49.274;8.708;2023-02-01T16:13:15;13.70;;;4.38;;
46339;SDS011;47273;49.274;8.708;2023-02-01T16:15:41;11.48;;;3.97;;
46339;SDS011;47273;49.274;8.708;2023-02-01T16:18:07;19.33;;;4.63;;
46339;SDS011;47273;49.274;8.708;2023-02-01T16:20:35;12.85;;;4.35;;
46339;SDS011;47273;49.274;8.708;2023-02-01T16:23:02;20.98;;;4.20;;
46339;SDS011;47273;49.274;8.708;2023-02-01T16:25:28;8.57;;;3.42;;
46339;SDS011;47273;49.274;8.708;2023-02-01T16:27:54;5.82;;;3.15;;
46339;SDS011;47273;49.274;8.708;2023-02-01T16:30:20;10.70;;;3.88;;
46339;SDS011;47273;49.274;8.708;2023-02-01T16:32:49;8.95;;;3.35;;
46339;SDS011;47273;49.274;8.708;2023-02-01T16:35:27;14.40;;;3.60;;
46339;SDS011;47273;49.274;8.708;2023-02-01T16:37:58;14.63;;;3.33;;
46339;SDS011;47273;49.274;8.708;2023-02-01T16:40:23;15.07;;;3.80;;
46339;SDS011;47273;49.274;8.708;2023-02-01T16:42:50;4.95;;;3.70;;
46339;SDS011;47273;49.274;8.708;2023-02-01T16:45:18;9.75;;;3.92;;
46339;SDS011;47273;49.274;8.708;2023-02-01T16:47:48;8.15;;;3.28;;
46339;SDS011;47273;49.274;8.708;2023-02-01T16:50:17;16.45;;;3.75;;
46339;SDS011;47273;49.274;8.708;2023-02-01T16:52:45;10.55;;;3.92;;
46339;SDS011;47273;49.274;8.708;2023-02-01T16:55:12;7.95;;;3.30;;
46339;SDS011;47273;49.274;8.708;2023-02-01T16:57:40;15.63;;;4.10;;
46339;SDS011;47273;49.274;8.708;2023-02-01T17:00:10;22.08;;;3.75;;
46339;SDS011;47273;49.274;8.708;2023-02-01T17:02:37;11.85;;;3.17;;
46339;SDS011;47273;49.274;8.708;2023-02-01T17:05:03;12.77;;;3.40;;
46339;SDS011;47273;49.274;8.708;2023-02-01T17:07:30;11.32;;;3.55;;
46339;SDS011;47273;49.274;8.708;2023-02-01T17:09:56;7.93;;;3.30;;
46339;SDS011;47273;49.274;8.708;2023-02-01T17:12:26;14.80;;;3.80;;
46339;SDS011;47273;49.274;8.708;2023-02-01T17:14:54;14.88;;;3.92;;
46339;SDS011;47273;49.274;8.708;2023-02-01T17:17:20;8.43;;;3.22;;
46339;SDS011;47273;49.274;8.708;2023-02-01T17:19:47;13.40;;;3.80;;
46339;SDS011;47273;49.274;8.708;2023-02-01T17:22:20;16.63;;;4.50;;
46339;SDS011;47273;49.274;8.708;2023-02-01T17:24:47;10.20;;;3.47;;
46339;SDS011;47273;49.274;8.708;2023-02-01T17:27:13;9.80;;;3.55;;
46339;SDS011;47273;49.274;8.708;2023-02-01T17:29:40;14.57;;;3.97;;
46339;SDS011;47273;49.274;8.708;2023-02-01T17:32:09;12.00;;;3.50;;
46339;SDS011;47273;49.274;8.708;2023-02-01T17:34:48;10.77;;;3.88;;
46339;SDS011;47273;49.274;8.708;2023-02-01T17:37:18;16.67;;;4.50;;
46339;SDS011;47273;49.274;8.708;2023-02-01T17:39:47;13.18;;;3.85;;
46339;SDS011;47273;49.274;8.708;2023-02-01T17:42:24;17.00;;;4.03;;